createdAt,value
2023-04-09T00:01:30.621Z,8.76
2023-04-09T00:03:57.401Z,8.74
2023-04-09T00:06:23.988Z,8.73
2023-04-09T00:08:50.724Z,8.73
2023-04-09T00:11:17.352Z,8.69
2023-04-09T00:13:43.757Z,8.67
2023-04-09T00:16:10.311Z,8.71
2023-04-09T00:18:36.912Z,8.72
2023-04-09T00:21:03.457Z,8.72
2023-04-09T00:23:29.926Z,8.70
2023-04-09T00:25:56.404Z,8.69
2023-04-09T00:28:22.904Z,8.70
2023-04-09T00:30:49.300Z,8.68
2023-04-09T00:33:15.765Z,8.65
2023-04-09T00:35:42.246Z,8.67
2023-04-09T00:38:08.693Z,8.66
2023-04-09T00:40:35.439Z,8.68
2023-04-09T00:43:02.427Z,8.67
2023-04-09T00:45:29.138Z,8.68
2023-04-09T00:47:56.770Z,8.67
2023-04-09T00:50:23.265Z,8.65
2023-04-09T00:52:49.676Z,8.64
2023-04-09T00:55:16.948Z,8.64
2023-04-09T00:57:43.463Z,8.65
2023-04-09T01:00:11.371Z,8.65
2023-04-09T01:02:38.363Z,8.67
2023-04-09T01:05:06.098Z,8.65
2023-04-09T01:07:54.202Z,8.63
2023-04-09T01:10:41.156Z,8.61
2023-04-09T01:13:13.736Z,8.59
2023-04-09T01:15:47.248Z,8.59
2023-04-09T01:18:22.142Z,8.59
2023-04-09T01:21:02.698Z,8.59
2023-04-09T01:23:54.697Z,8.62
2023-04-09T01:26:45.835Z,8.61
2023-04-09T01:29:13.238Z,8.60
2023-04-09T01:31:43.164Z,8.57
2023-04-09T01:34:11.507Z,8.56
2023-04-09T01:36:40.410Z,8.56
2023-04-09T01:39:07.649Z,8.57
2023-04-09T01:41:35.467Z,8.57
2023-04-09T01:44:03.966Z,8.54
2023-04-09T01:46:32.241Z,8.54
2023-04-09T01:48:59.293Z,8.54
2023-04-09T01:51:27.336Z,8.54
2023-04-09T01:53:54.193Z,8.57
2023-04-09T01:56:21.302Z,8.56
2023-04-09T01:58:48.361Z,8.57
2023-04-09T02:01:35.970Z,8.56
2023-04-09T02:04:05.255Z,8.55
2023-04-09T02:06:44.285Z,8.55
2023-04-09T02:09:12.452Z,8.55
2023-04-09T02:11:42.356Z,8.56
2023-04-09T02:14:11.615Z,8.57
2023-04-09T02:16:39.030Z,8.57
2023-04-09T02:19:05.625Z,8.57
2023-04-09T02:21:32.189Z,8.56
2023-04-09T02:23:58.688Z,8.54
2023-04-09T02:26:25.379Z,8.55
2023-04-09T02:28:52.075Z,8.53
2023-04-09T02:31:18.715Z,8.54
2023-04-09T02:33:45.302Z,8.53
2023-04-09T02:36:13.015Z,8.54
2023-04-09T02:38:43.217Z,8.53
2023-04-09T02:41:10.316Z,8.52
2023-04-09T02:43:36.937Z,8.50
2023-04-09T02:46:04.549Z,8.52
2023-04-09T02:48:30.981Z,8.52
2023-04-09T02:50:57.418Z,8.49
2023-04-09T02:53:23.962Z,8.49
2023-04-09T02:55:50.481Z,8.49
2023-04-09T02:58:16.965Z,8.48
2023-04-09T03:00:43.368Z,8.48
2023-04-09T03:03:10.001Z,8.46
2023-04-09T03:05:36.785Z,8.48
2023-04-09T03:08:04.005Z,8.52
2023-04-09T03:10:30.536Z,8.50
2023-04-09T03:12:57.027Z,8.50
2023-04-09T03:15:23.548Z,8.50
2023-04-09T03:17:49.955Z,8.48
2023-04-09T03:20:16.394Z,8.47
2023-04-09T03:22:42.798Z,8.48
2023-04-09T03:25:09.723Z,8.48
2023-04-09T03:27:36.315Z,8.49
2023-04-09T03:30:03.298Z,8.50
2023-04-09T03:32:29.693Z,8.48
2023-04-09T03:34:56.102Z,8.48
2023-04-09T03:37:22.557Z,8.45
2023-04-09T03:39:48.928Z,8.44
2023-04-09T03:42:15.433Z,8.45
2023-04-09T03:44:41.833Z,8.44
2023-04-09T03:47:08.248Z,8.42
2023-04-09T03:49:35.835Z,8.42
2023-04-09T03:52:02.520Z,8.44
2023-04-09T03:54:29.998Z,8.45
2023-04-09T03:56:57.147Z,8.43
2023-04-09T03:59:24.289Z,8.44
2023-04-09T04:01:50.808Z,8.42
2023-04-09T04:04:17.786Z,8.42
2023-04-09T04:06:44.401Z,8.43
2023-04-09T04:09:10.805Z,8.43
2023-04-09T04:11:37.562Z,8.43
2023-04-09T04:14:04.610Z,8.41
2023-04-09T04:16:31.113Z,8.43
2023-04-09T04:18:57.652Z,8.44
2023-04-09T04:21:24.077Z,8.43
2023-04-09T04:23:50.579Z,8.43
2023-04-09T04:26:16.929Z,8.42
2023-04-09T04:28:43.349Z,8.39
2023-04-09T04:31:13.108Z,8.38
2023-04-09T04:33:41.409Z,8.38
2023-04-09T04:36:09.829Z,8.38
2023-04-09T04:38:36.935Z,8.36
2023-04-09T04:41:04.102Z,8.36
2023-04-09T04:43:30.878Z,8.36
2023-04-09T04:45:57.367Z,8.34
2023-04-09T04:48:24.146Z,8.35
2023-04-09T04:51:01.823Z,8.34
2023-04-09T04:53:28.439Z,8.36
2023-04-09T04:55:55.045Z,8.35
2023-04-09T04:58:21.532Z,8.34
2023-04-09T05:00:48.087Z,8.32
2023-04-09T05:03:14.845Z,8.33
2023-04-09T05:05:41.457Z,8.33
2023-04-09T05:08:08.145Z,8.33
2023-04-09T05:10:34.630Z,8.31
2023-04-09T05:13:01.063Z,8.32
2023-04-09T05:15:27.600Z,8.30
2023-04-09T05:17:54.378Z,8.31
2023-04-09T05:20:20.822Z,8.30
2023-04-09T05:22:47.287Z,8.29
2023-04-09T05:25:15.997Z,8.31
2023-04-09T05:27:42.703Z,8.30
2023-04-09T05:30:09.431Z,8.30
2023-04-09T05:32:35.959Z,8.31
2023-04-09T05:35:02.484Z,8.31
2023-04-09T05:37:28.877Z,8.31
2023-04-09T05:39:56.840Z,8.34
2023-04-09T05:42:23.244Z,8.34
2023-04-09T05:44:49.612Z,8.33
2023-04-09T05:47:16.282Z,8.32
2023-04-09T05:49:42.741Z,8.33
2023-04-09T05:52:09.132Z,8.31
2023-04-09T05:54:35.523Z,8.31
2023-04-09T05:57:01.944Z,8.31
2023-04-09T05:59:28.379Z,8.33
2023-04-09T06:01:54.759Z,8.34
2023-04-09T06:04:21.553Z,8.35
2023-04-09T06:06:48.128Z,8.36
2023-04-09T06:09:14.524Z,8.37
2023-04-09T06:11:41.117Z,8.39
2023-04-09T06:14:07.943Z,8.40
2023-04-09T06:16:34.877Z,8.41
2023-04-09T06:19:01.344Z,8.43
2023-04-09T06:21:27.912Z,8.45
2023-04-09T06:23:54.626Z,8.48
2023-04-09T06:26:21.490Z,8.48
2023-04-09T06:28:48.058Z,8.49
2023-04-09T06:31:14.619Z,8.54
2023-04-09T06:33:41.240Z,8.58
2023-04-09T06:36:08.127Z,8.61
2023-04-09T06:38:34.569Z,8.67
2023-04-09T06:41:01.209Z,8.73
2023-04-09T06:43:27.751Z,8.80
2023-04-09T06:45:54.178Z,8.84
2023-04-09T06:48:20.766Z,8.85
2023-04-09T06:50:47.347Z,8.86
2023-04-09T06:53:15.107Z,8.86
2023-04-09T06:55:42.007Z,8.84
2023-04-09T06:58:09.282Z,8.82
2023-04-09T07:00:36.536Z,8.82
2023-04-09T07:03:05.381Z,8.89
2023-04-09T07:05:32.060Z,8.95
2023-04-09T07:07:58.544Z,9.04
2023-04-09T07:10:25.217Z,9.14
2023-04-09T07:12:51.809Z,9.28
2023-04-09T07:15:18.264Z,9.48
2023-04-09T07:17:44.885Z,9.71
2023-04-09T07:20:11.856Z,9.79
2023-04-09T07:22:39.510Z,9.86
2023-04-09T07:25:06.670Z,9.96
2023-04-09T07:27:33.248Z,10.07
2023-04-09T07:29:59.974Z,10.14
2023-04-09T07:32:28.129Z,10.14
2023-04-09T07:34:55.387Z,10.27
2023-04-09T07:37:22.013Z,10.33
2023-04-09T07:39:49.651Z,10.36
2023-04-09T07:42:16.126Z,10.48
2023-04-09T07:44:43.772Z,10.46
2023-04-09T07:47:11.298Z,10.52
2023-04-09T07:49:38.105Z,10.75
2023-04-09T07:52:05.797Z,11.09
2023-04-09T07:54:33.021Z,11.27
2023-04-09T07:56:59.969Z,11.32
2023-04-09T07:59:27.605Z,11.34
2023-04-09T08:01:54.267Z,11.35
2023-04-09T08:04:21.292Z,11.25
2023-04-09T08:06:50.647Z,11.25
2023-04-09T08:09:18.614Z,11.25
2023-04-09T08:11:48.398Z,11.22
2023-04-09T08:14:16.501Z,11.20
2023-04-09T08:16:45.043Z,11.23
2023-04-09T08:19:12.328Z,11.11
2023-04-09T08:21:46.119Z,11.02
2023-04-09T08:24:12.625Z,10.89
2023-04-09T08:26:39.920Z,11.00
2023-04-09T08:29:07.703Z,11.01
2023-04-09T08:31:35.173Z,11.04
2023-04-09T08:34:01.584Z,11.14
2023-04-09T08:36:28.371Z,11.42
2023-04-09T08:38:56.473Z,11.59
2023-04-09T08:41:25.803Z,11.59
2023-04-09T08:43:58.141Z,11.59
2023-04-09T08:46:26.112Z,11.62
2023-04-09T08:48:53.460Z,11.61
2023-04-09T08:51:22.324Z,11.96
2023-04-09T08:53:53.391Z,12.13
2023-04-09T08:56:21.919Z,12.31
2023-04-09T08:58:48.527Z,12.26
2023-04-09T09:01:27.069Z,12.29
2023-04-09T09:04:05.476Z,12.36
2023-04-09T09:06:34.131Z,12.39
2023-04-09T09:09:17.060Z,12.09
2023-04-09T09:11:45.769Z,12.14
2023-04-09T09:14:15.321Z,12.27
2023-04-09T09:16:44.641Z,12.49
2023-04-09T09:19:30.387Z,12.56
2023-04-09T09:22:02.696Z,12.46
2023-04-09T09:24:30.723Z,12.53
2023-04-09T09:26:58.736Z,12.38
2023-04-09T09:29:25.951Z,12.27
2023-04-09T09:31:54.040Z,12.03
2023-04-09T09:34:22.054Z,12.05
2023-04-09T09:36:48.957Z,12.04
2023-04-09T09:39:17.676Z,12.03
2023-04-09T09:41:45.959Z,12.33
2023-04-09T09:44:30.009Z,12.53
2023-04-09T09:46:57.501Z,12.67
2023-04-09T09:49:23.929Z,12.83
2023-04-09T09:51:53.283Z,12.97
2023-04-09T09:54:23.514Z,12.97
2023-04-09T09:56:52.931Z,12.83
2023-04-09T09:59:19.287Z,12.79
2023-04-09T10:01:47.782Z,12.89
2023-04-09T10:04:16.397Z,12.85
2023-04-09T10:06:48.129Z,13.02
2023-04-09T10:09:14.982Z,13.14
2023-04-09T10:11:43.831Z,13.33
2023-04-09T10:14:10.522Z,13.14
2023-04-09T10:16:37.483Z,13.10
2023-04-09T10:19:04.939Z,13.32
2023-04-09T10:21:47.737Z,13.45
2023-04-09T10:24:15.909Z,13.43
2023-04-09T10:26:45.018Z,13.35
2023-04-09T10:29:16.569Z,13.06
2023-04-09T10:31:52.198Z,13.08
2023-04-09T10:34:21.810Z,13.42
2023-04-09T10:36:53.492Z,13.70
2023-04-09T10:39:20.545Z,13.51
2023-04-09T10:41:48.843Z,13.42
2023-04-09T10:44:28.336Z,13.26
2023-04-09T10:46:55.720Z,13.66
2023-04-09T10:49:24.291Z,14.06
2023-04-09T10:52:13.849Z,13.81
2023-04-09T10:54:47.383Z,13.56
2023-04-09T10:57:19.022Z,13.48
2023-04-09T10:59:51.405Z,13.91
2023-04-09T11:02:40.246Z,13.95
2023-04-09T11:05:31.169Z,13.67
2023-04-09T11:08:04.456Z,13.54
2023-04-09T11:10:34.395Z,13.48
2023-04-09T11:13:02.404Z,13.66
2023-04-09T11:15:29.666Z,13.96
2023-04-09T11:17:57.618Z,14.23
2023-04-09T11:20:25.978Z,14.39
2023-04-09T11:22:57.009Z,14.60
2023-04-09T11:25:26.483Z,14.63
2023-04-09T11:27:53.611Z,14.68
2023-04-09T11:30:20.373Z,14.49
2023-04-09T11:32:48.176Z,14.42
2023-04-09T11:35:23.742Z,14.42
2023-04-09T11:37:52.198Z,14.60
2023-04-09T11:40:20.952Z,14.76
2023-04-09T11:42:55.431Z,14.94
2023-04-09T11:45:29.601Z,14.64
2023-04-09T11:47:56.954Z,14.78
2023-04-09T11:50:23.761Z,14.90
2023-04-09T11:52:50.556Z,15.08
2023-04-09T11:55:28.372Z,15.02
2023-04-09T11:58:01.169Z,14.80
2023-04-09T12:00:28.844Z,14.79
2023-04-09T12:03:04.630Z,15.02
2023-04-09T12:05:33.566Z,15.19
2023-04-09T12:08:02.258Z,15.33
2023-04-09T12:10:30.746Z,15.55
2023-04-09T12:13:06.325Z,15.60
2023-04-09T12:15:35.533Z,15.59
2023-04-09T12:18:02.273Z,15.64
2023-04-09T12:20:40.674Z,15.51
2023-04-09T12:23:08.726Z,15.17
2023-04-09T12:25:41.177Z,15.05
2023-04-09T12:28:09.812Z,15.11
2023-04-09T12:30:36.605Z,15.35
2023-04-09T12:33:04.543Z,15.48
2023-04-09T12:35:31.906Z,15.44
2023-04-09T12:37:59.408Z,15.37
2023-04-09T12:40:26.677Z,15.44
2023-04-09T12:42:53.792Z,15.34
2023-04-09T12:45:21.169Z,15.62
2023-04-09T12:47:48.113Z,15.74
2023-04-09T12:50:16.109Z,15.74
2023-04-09T12:52:43.092Z,15.72
2023-04-09T12:55:10.621Z,15.73
2023-04-09T12:57:38.598Z,15.83
2023-04-09T13:00:07.513Z,15.81
2023-04-09T13:02:34.836Z,15.85
2023-04-09T13:05:01.705Z,15.75
2023-04-09T13:07:29.477Z,15.62
2023-04-09T13:09:57.226Z,15.62
2023-04-09T13:12:24.336Z,15.89
2023-04-09T13:14:53.690Z,15.83
2023-04-09T13:17:20.241Z,15.65
2023-04-09T13:19:47.468Z,15.79
2023-04-09T13:22:14.424Z,15.75
2023-04-09T13:24:41.062Z,15.77
2023-04-09T13:27:11.113Z,15.79
2023-04-09T13:29:38.254Z,15.74
2023-04-09T13:32:07.582Z,15.52
2023-04-09T13:34:35.572Z,15.35
2023-04-09T13:37:03.307Z,15.27
2023-04-09T13:39:29.785Z,15.19
2023-04-09T13:41:56.790Z,15.24
2023-04-09T13:44:24.906Z,15.67
2023-04-09T13:46:51.618Z,15.86
2023-04-09T13:49:18.320Z,15.74
2023-04-09T13:51:45.330Z,15.71
2023-04-09T13:54:11.962Z,15.76
2023-04-09T13:56:39.662Z,15.77
2023-04-09T13:59:06.578Z,15.74
2023-04-09T14:01:34.391Z,15.66
2023-04-09T14:04:01.017Z,15.55
2023-04-09T14:06:28.033Z,15.53
2023-04-09T14:08:55.104Z,15.65
2023-04-09T14:11:21.812Z,15.77
2023-04-09T14:13:51.617Z,15.83
2023-04-09T14:16:19.769Z,15.81
2023-04-09T14:18:46.385Z,15.87
2023-04-09T14:21:13.024Z,15.92
2023-04-09T14:23:39.997Z,15.82
2023-04-09T14:26:07.421Z,15.60
2023-04-09T14:28:33.913Z,15.36
2023-04-09T14:31:00.679Z,15.49
2023-04-09T14:33:27.446Z,15.60
2023-04-09T14:35:53.993Z,15.62
2023-04-09T14:38:20.601Z,15.81
2023-04-09T14:40:47.409Z,15.91
2023-04-09T14:43:13.858Z,15.90
2023-04-09T14:45:40.381Z,15.89
2023-04-09T14:48:08.296Z,15.94
2023-04-09T14:50:36.609Z,15.78
2023-04-09T14:53:04.078Z,15.77
2023-04-09T14:55:30.855Z,15.71
2023-04-09T14:57:59.564Z,15.64
2023-04-09T15:00:26.021Z,15.68
2023-04-09T15:02:52.799Z,15.76
2023-04-09T15:05:19.472Z,15.77
2023-04-09T15:07:46.158Z,15.79
2023-04-09T15:10:12.856Z,15.75
2023-04-09T15:12:39.303Z,15.74
2023-04-09T15:15:07.430Z,15.75
2023-04-09T15:17:34.224Z,15.84
2023-04-09T15:20:00.671Z,15.84
2023-04-09T15:22:27.131Z,15.82
2023-04-09T15:24:53.857Z,15.90
2023-04-09T15:27:20.395Z,15.84
2023-04-09T15:29:47.109Z,15.79
2023-04-09T15:32:13.699Z,15.81
2023-04-09T15:34:40.411Z,15.84
2023-04-09T15:37:06.864Z,15.83
2023-04-09T15:39:34.011Z,15.65
2023-04-09T15:42:01.832Z,15.55
2023-04-09T15:44:28.740Z,15.47
2023-04-09T15:46:56.045Z,15.48
2023-04-09T15:49:23.127Z,15.33
2023-04-09T15:51:49.729Z,15.34
2023-04-09T15:54:16.246Z,15.35
2023-04-09T15:56:42.813Z,15.39
2023-04-09T15:59:09.631Z,15.38
2023-04-09T16:01:36.636Z,15.38
2023-04-09T16:04:04.980Z,15.36
2023-04-09T16:06:31.908Z,15.36
2023-04-09T16:08:58.460Z,15.38
2023-04-09T16:11:25.070Z,15.24
2023-04-09T16:13:52.357Z,15.14
2023-04-09T16:16:19.064Z,15.07
2023-04-09T16:18:45.627Z,15.09
2023-04-09T16:21:12.635Z,15.11
2023-04-09T16:23:39.688Z,15.04
2023-04-09T16:26:06.944Z,14.95
2023-04-09T16:28:33.413Z,14.87
2023-04-09T16:30:59.951Z,14.80
2023-04-09T16:33:26.513Z,14.75
2023-04-09T16:35:53.133Z,14.66
2023-04-09T16:38:19.893Z,14.56
2023-04-09T16:40:46.632Z,14.45
2023-04-09T16:43:13.082Z,14.34
2023-04-09T16:45:39.594Z,14.24
2023-04-09T16:48:11.383Z,14.15
2023-04-09T16:50:39.634Z,14.07
2023-04-09T16:53:06.494Z,13.99
2023-04-09T16:55:33.103Z,14.02
2023-04-09T16:57:59.659Z,14.08
2023-04-09T17:00:27.369Z,14.12
2023-04-09T17:02:55.692Z,14.10
2023-04-09T17:05:22.808Z,14.07
2023-04-09T17:07:49.276Z,14.05
2023-04-09T17:10:15.770Z,14.03
2023-04-09T17:12:42.748Z,13.98
2023-04-09T17:15:10.033Z,13.94
2023-04-09T17:17:37.567Z,13.86
2023-04-09T17:20:04.511Z,13.82
2023-04-09T17:22:31.041Z,13.77
2023-04-09T17:24:57.664Z,13.72
2023-04-09T17:27:24.092Z,13.67
2023-04-09T17:29:50.731Z,13.63
2023-04-09T17:32:17.294Z,13.63
2023-04-09T17:34:47.312Z,13.59
2023-04-09T17:37:13.847Z,13.52
2023-04-09T17:39:40.971Z,13.47
2023-04-09T17:42:07.686Z,13.40
2023-04-09T17:44:35.452Z,13.33
2023-04-09T17:47:05.105Z,13.28
2023-04-09T17:49:32.342Z,13.23
2023-04-09T17:52:09.223Z,13.16
2023-04-09T17:54:38.984Z,13.08
2023-04-09T17:57:07.529Z,13.00
2023-04-09T17:59:34.632Z,12.92
2023-04-09T18:02:01.334Z,12.85
2023-04-09T18:04:28.029Z,12.77
2023-04-09T18:06:55.413Z,12.70
2023-04-09T18:09:21.959Z,12.62
2023-04-09T18:11:48.992Z,12.48
2023-04-09T18:14:15.555Z,12.37
2023-04-09T18:16:42.055Z,12.30
2023-04-09T18:19:08.641Z,12.23
2023-04-09T18:21:37.890Z,12.19
2023-04-09T18:24:05.255Z,12.13
2023-04-09T18:26:33.770Z,12.07
2023-04-09T18:29:01.369Z,12.00
2023-04-09T18:31:28.594Z,11.96
2023-04-09T18:33:55.228Z,11.87
2023-04-09T18:36:22.247Z,11.82
2023-04-09T18:38:48.859Z,11.76
2023-04-09T18:41:25.994Z,11.69
2023-04-09T18:43:52.967Z,11.63
2023-04-09T18:46:19.555Z,11.55
2023-04-09T18:48:48.914Z,11.52
2023-04-09T18:51:15.570Z,11.47
2023-04-09T18:53:42.299Z,11.43
2023-04-09T18:56:09.337Z,11.42
2023-04-09T18:58:36.423Z,11.35
2023-04-09T19:01:12.438Z,11.29
2023-04-09T19:03:40.177Z,11.25
2023-04-09T19:06:12.255Z,11.19
2023-04-09T19:08:39.011Z,11.16
2023-04-09T19:11:06.544Z,11.08
2023-04-09T19:13:33.220Z,11.03
2023-04-09T19:15:59.842Z,10.96
2023-04-09T19:18:26.703Z,10.93
2023-04-09T19:20:53.239Z,10.87
2023-04-09T19:23:20.244Z,10.83
2023-04-09T19:25:55.072Z,10.78
2023-04-09T19:28:22.341Z,10.74
2023-04-09T19:30:52.229Z,10.71
2023-04-09T19:33:20.569Z,10.68
2023-04-09T19:35:51.433Z,10.59
2023-04-09T19:38:19.204Z,10.52
2023-04-09T19:40:45.909Z,10.43
2023-04-09T19:43:12.637Z,10.36
2023-04-09T19:45:39.873Z,10.33
2023-04-09T19:48:07.087Z,10.30
2023-04-09T19:50:38.905Z,10.31
2023-04-09T19:53:06.145Z,10.30
2023-04-09T19:55:36.205Z,10.28
2023-04-09T19:58:03.225Z,10.27
2023-04-09T20:00:29.788Z,10.25
2023-04-09T20:02:57.236Z,10.19
2023-04-09T20:05:24.019Z,10.13
2023-04-09T20:07:51.551Z,10.07
2023-04-09T20:10:18.453Z,10.03
2023-04-09T20:12:49.245Z,9.99
2023-04-09T20:15:17.521Z,9.96
2023-04-09T20:17:44.037Z,9.94
2023-04-09T20:20:11.668Z,9.86
2023-04-09T20:22:43.020Z,9.84
2023-04-09T20:25:12.690Z,9.86
2023-04-09T20:27:39.388Z,9.87
2023-04-09T20:30:07.304Z,9.85
2023-04-09T20:32:36.325Z,9.85
2023-04-09T20:35:03.056Z,9.83
2023-04-09T20:37:29.473Z,9.80
2023-04-09T20:39:56.032Z,9.77
2023-04-09T20:42:22.637Z,9.75
2023-04-09T20:44:49.650Z,9.70
2023-04-09T20:47:16.307Z,9.63
2023-04-09T20:49:43.085Z,9.58
2023-04-09T20:52:09.893Z,9.56
2023-04-09T20:54:36.342Z,9.55
2023-04-09T20:57:05.558Z,9.52
2023-04-09T20:59:32.155Z,9.49
2023-04-09T21:01:58.718Z,9.44
2023-04-09T21:04:26.100Z,9.41
2023-04-09T21:06:52.874Z,9.36
2023-04-09T21:09:19.253Z,9.35
2023-04-09T21:11:46.093Z,9.31
2023-04-09T21:14:14.473Z,9.30
2023-04-09T21:16:41.201Z,9.29
2023-04-09T21:19:07.708Z,9.28
2023-04-09T21:21:34.774Z,9.27
2023-04-09T21:24:01.614Z,9.23
2023-04-09T21:26:35.787Z,9.20
2023-04-09T21:29:11.621Z,9.18
2023-04-09T21:31:38.075Z,9.18
2023-04-09T21:34:04.548Z,9.18
2023-04-09T21:36:34.593Z,9.16
2023-04-09T21:39:01.510Z,9.12
2023-04-09T21:41:28.235Z,9.08
2023-04-09T21:43:54.626Z,9.05
2023-04-09T21:46:21.899Z,9.03
2023-04-09T21:48:48.400Z,9.01
2023-04-09T21:51:14.921Z,8.97
2023-04-09T21:53:41.484Z,8.96
2023-04-09T21:56:08.013Z,8.93
2023-04-09T21:58:34.497Z,8.91
2023-04-09T22:01:00.896Z,8.89
2023-04-09T22:03:27.728Z,8.84
2023-04-09T22:05:54.458Z,8.81
2023-04-09T22:08:20.974Z,8.78
2023-04-09T22:10:47.502Z,8.73
2023-04-09T22:13:13.857Z,8.70
2023-04-09T22:15:41.892Z,8.67
2023-04-09T22:18:08.466Z,8.62
2023-04-09T22:20:36.323Z,8.59
2023-04-09T22:23:03.045Z,8.58
2023-04-09T22:25:34.796Z,8.55
2023-04-09T22:28:01.456Z,8.55
2023-04-09T22:30:28.046Z,8.53
2023-04-09T22:32:54.470Z,8.51
2023-04-09T22:35:21.098Z,8.50
2023-04-09T22:37:47.525Z,8.49
2023-04-09T22:40:15.451Z,8.47
2023-04-09T22:42:43.214Z,8.43
2023-04-09T22:45:11.201Z,8.38
2023-04-09T22:47:38.726Z,8.35
2023-04-09T22:50:06.998Z,8.26
2023-04-09T22:52:33.527Z,8.18
2023-04-09T22:54:59.936Z,8.15
2023-04-09T22:57:26.337Z,8.14
2023-04-09T22:59:52.718Z,8.11
2023-04-09T23:02:19.446Z,8.07
2023-04-09T23:04:46.020Z,8.01
2023-04-09T23:07:12.561Z,7.96
2023-04-09T23:09:38.925Z,7.94
2023-04-09T23:12:05.332Z,7.92
2023-04-09T23:14:31.733Z,7.90
2023-04-09T23:16:58.230Z,7.89
2023-04-09T23:19:24.585Z,7.88
2023-04-09T23:21:51.336Z,7.86
2023-04-09T23:24:19.145Z,7.87
2023-04-09T23:26:45.650Z,7.88
2023-04-09T23:29:12.009Z,7.87
2023-04-09T23:31:38.367Z,7.87
2023-04-09T23:34:04.756Z,7.88
2023-04-09T23:36:31.566Z,7.87
2023-04-09T23:38:58.046Z,7.86
2023-04-09T23:41:24.436Z,7.83
2023-04-09T23:43:51.316Z,7.83
2023-04-09T23:46:17.967Z,7.84
2023-04-09T23:48:44.334Z,7.84
2023-04-09T23:51:17.345Z,7.83
2023-04-09T23:53:43.886Z,7.81
2023-04-09T23:56:10.731Z,7.77
2023-04-09T23:58:37.299Z,7.75
